This is the latest recevied weather packets stored in our database for station/object OE7AOT-2. If no packets are shown the sender has not sent any weather packets the latest 10 day(s).
| Time | Temp. | Humidity | Pressure | Rain* | Wind** | Luminosity | Snow |
|---|---|---|---|---|---|---|---|
| 1778168859 | 24.44° C | 55% | 923.2 hPa | 0 mm | - | - | - |
| 1778168791 | 24.44° C | 55% | 923.2 hPa | 0 mm | - | - | - |
| 1778168723 | 23.89° C | 55% | 923.3 hPa | 0 mm | - | - | - |
| 1778168654 | 24.44° C | 54% | 923.2 hPa | 0 mm | - | - | - |
| 1778168586 | 25.56° C | 52% | 923.2 hPa | 0 mm | - | - | - |
| 1778168517 | 26.67° C | 51% | 923.2 hPa | 0 mm | - | - | - |
| 1778168449 | 28.33° C | 49% | 923.1 hPa | 0 mm | - | - | - |
| 1778168380 | 30.56° C | 48% | 923 hPa | 0 mm | - | - | - |
| 1778168312 | 32.22° C | 46% | 923.1 hPa | 0 mm | - | - | - |
| 1778168244 | 30.56° C | 48% | 923.1 hPa | 0 mm | - | - | - |
| 1778168175 | 28.33° C | 49% | 923.1 hPa | 0 mm | - | - | - |
| 1778168106 | 27.22° C | 50% | 923.2 hPa | 0 mm | - | - | - |
| 1778168038 | 26.11° C | 51% | 923.2 hPa | 0 mm | - | - | - |
| 1778167969 | 26.67° C | 50% | 923.1 hPa | 0 mm | - | - | - |
| 1778167901 | 28.33° C | 49% | 923.2 hPa | 0 mm | - | - | - |
| 1778167833 | 28.33° C | 48% | 923.2 hPa | 0 mm | - | - | - |
| 1778167764 | 30° C | 47% | 923.1 hPa | 0 mm | - | - | - |
| 1778167696 | 31.11° C | 46% | 923.2 hPa | 0 mm | - | - | - |
| 1778167627 | 31.67° C | 46% | 923.1 hPa | 0 mm | - | - | - |
| 1778167559 | 32.22° C | 46% | 923.1 hPa | 0 mm | - | - | - |
| 1778167490 | 31.67° C | 47% | 923.2 hPa | 0 mm | - | - | - |
| 1778167422 | 30.56° C | 49% | 923.2 hPa | 0 mm | - | - | - |
| 1778167354 | 28.89° C | 52% | 923.3 hPa | 0 mm | - | - | - |
| 1778167285 | 26.11° C | 56% | 923.3 hPa | 0 mm | - | - | - |
| 1778167217 | 23.33° C | 60% | 923.5 hPa | 0 mm | - | - | - |
* Rain latest hour (hover to see other rain measurements)
** Current wind speed in m/s (hover to see current wind gust speed)